Terminal Aerodrome Forecast
Issued by NWS

Home | Current Version | Previous Version | Graphics & Text | Print | Product List | Glossary On
Versions: 1 2 3 4 5 6 7 8 9 10 11 12 13 14 15 16
000
FTUS43 KGRB 221124
TAFATW
TAF
KATW 221124Z 2212/2312 21006KT P6SM FEW200 WS020/24035KT
     FM221500 21006KT P6SM SCT200
     FM230300 28005KT P6SM SCT130
     FM230900 30007KT P6SM BKN045
     FM231100 33007KT P6SM BKN030=

USA.gov is the U.S. government's official web portal to all federal, state and local government web resources and services.